Time;durP1;ratioP1;P1;durP2;ratioP2;P2;SDS_P1;SDS_P2;PMS_P1;PMS_P2;Temp;Humidity;BMP_temperature;BMP_pressure;BME280_temperature;BME280_humidity;BME280_pressure;Samples;Min_cycle;Max_cycle;Signal;HPM_P1;HPM_P2
2022/08/05 00:00:22;;;;;;;7.03;5.25;;;19.80;99.90;;;;;;5049262;28;20529;-59
2022/08/05 00:02:48;;;;;;;9.73;5.05;;;20.10;99.90;;;;;;5046297;28;20017;-59
2022/08/05 00:05:13;;;;;;;9.90;4.70;;;19.40;99.90;;;;;;5052765;28;20044;-59
2022/08/05 00:07:39;;;;;;;7.28;5.25;;;19.30;99.90;;;;;;5049908;28;20163;-59
2022/08/05 00:10:05;;;;;;;9.05;5.13;;;19.50;99.90;;;;;;5046576;28;20036;-59
2022/08/05 00:12:31;;;;;;;5.72;4.70;;;19.30;99.90;;;;;;5047240;28;20039;-59
2022/08/05 00:14:56;;;;;;;9.07;5.22;;;19.20;99.90;;;;;;5047398;28;20032;-59
2022/08/05 00:17:22;;;;;;;7.72;5.25;;;19.40;99.90;;;;;;5046533;28;20086;-60
2022/08/05 00:19:47;;;;;;;9.73;5.45;;;19.30;99.90;;;;;;5051086;28;20025;-59
2022/08/05 00:22:13;;;;;;;9.50;5.10;;;19.10;99.90;;;;;;5045153;28;20461;-59
2022/08/05 00:24:39;;;;;;;14.45;6.20;;;18.90;99.90;;;;;;5050756;28;20025;-60
2022/08/05 00:27:05;;;;;;;7.32;4.80;;;18.90;99.90;;;;;;5046156;28;20211;-60
2022/08/05 00:29:31;;;;;;;8.43;4.60;;;19.00;99.90;;;;;;5046097;28;20170;-59
2022/08/05 00:31:56;;;;;;;9.38;4.72;;;18.90;99.90;;;;;;5046520;28;20021;-59
2022/08/05 00:34:22;;;;;;;8.93;5.07;;;19.00;99.90;;;;;;5043435;28;20021;-59
2022/08/05 00:36:48;;;;;;;7.13;5.28;;;19.10;99.90;;;;;;5045858;28;20112;-59
2022/08/05 00:39:14;;;;;;;10.90;5.32;;;18.80;99.90;;;;;;5044313;28;20025;-59
2022/08/05 00:41:44;;;;;;;8.80;4.88;;;18.70;99.90;;;;;;5045696;28;20031;-59
2022/08/05 00:44:10;;;;;;;9.15;5.18;;;18.90;99.90;;;;;;5038733;28;20025;-59
2022/08/05 00:46:36;;;;;;;8.15;5.13;;;18.70;99.90;;;;;;5042211;28;20029;-58
2022/08/05 00:49:02;;;;;;;12.65;5.80;;;18.90;99.90;;;;;;5045732;28;20428;-59
2022/08/05 00:51:28;;;;;;;9.63;6.07;;;18.60;99.90;;;;;;5045629;28;20103;-59
2022/08/05 00:53:53;;;;;;;10.27;5.82;;;18.60;99.90;;;;;;5043752;28;20031;-59
2022/08/05 00:56:19;;;;;;;11.25;6.10;;;18.60;99.90;;;;;;5044757;28;20021;-59
2022/08/05 00:58:45;;;;;;;10.27;6.30;;;18.50;99.90;;;;;;5045256;28;20537;-59
2022/08/05 01:01:12;;;;;;;9.73;6.20;;;18.60;99.90;;;;;;5045391;28;20033;-59
2022/08/05 01:03:38;;;;;;;10.77;6.18;;;18.50;99.90;;;;;;5044493;28;20033;-59
2022/08/05 01:06:04;;;;;;;10.27;6.43;;;18.20;99.90;;;;;;5042853;28;20526;-59
2022/08/05 01:08:30;;;;;;;11.15;6.75;;;18.20;99.90;;;;;;5045394;28;20461;-59
2022/08/05 01:11:03;;;;;;;11.20;7.65;;;18.30;99.90;;;;;;5044961;28;20090;-59
2022/08/05 01:13:44;;;;;;;10.95;7.38;;;18.30;99.90;;;;;;5046674;28;20033;-59
2022/08/05 01:16:18;;;;;;;11.57;7.20;;;18.30;99.90;;;;;;5044233;28;20130;-59
2022/08/05 01:18:50;;;;;;;13.00;7.30;;;18.30;99.90;;;;;;5050564;28;20024;-59
2022/08/05 01:21:36;;;;;;;12.52;7.50;;;18.30;99.90;;;;;;5043558;28;20020;-59
2022/08/05 01:24:39;;;;;;;11.85;7.72;;;18.10;99.90;;;;;;5044946;28;20417;-59
2022/08/05 01:27:36;;;;;;;11.07;7.75;;;18.30;99.90;;;;;;5042916;28;20111;-59
2022/08/05 01:30:04;;;;;;;12.10;8.25;;;18.20;99.90;;;;;;5019545;28;20116;-59
2022/08/05 01:32:34;;;;;;;12.27;7.80;;;18.20;99.90;;;;;;5040093;28;20063;-59
2022/08/05 01:35:05;;;;;;;11.48;7.93;;;18.30;99.90;;;;;;5044541;28;20045;-59
2022/08/05 01:37:47;;;;;;;11.48;7.75;;;18.30;99.90;;;;;;5043306;28;20024;-59
2022/08/05 01:40:16;;;;;;;14.48;8.32;;;18.60;99.90;;;;;;5043395;28;20021;-59
2022/08/05 01:42:44;;;;;;;11.82;8.18;;;18.40;99.90;;;;;;5044487;28;20535;-59
2022/08/05 01:45:11;;;;;;;12.98;8.18;;;18.30;99.90;;;;;;5026908;28;20443;-59
2022/08/05 01:47:38;;;;;;;15.77;8.75;;;18.20;99.90;;;;;;5044742;28;20557;-59
2022/08/05 01:50:06;;;;;;;12.55;8.52;;;18.40;99.90;;;;;;5043695;28;20032;-59
2022/08/05 01:52:35;;;;;;;15.73;9.02;;;18.70;99.90;;;;;;5044285;28;20094;-59
2022/08/05 01:55:07;;;;;;;11.68;8.85;;;18.60;99.90;;;;;;5044121;28;20697;-59
2022/08/05 01:57:42;;;;;;;14.02;9.07;;;18.70;99.90;;;;;;5044336;28;20542;-59
2022/08/05 02:00:10;;;;;;;16.52;10.20;;;18.70;99.90;;;;;;5039487;28;20021;-60
2022/08/05 02:02:40;;;;;;;12.73;8.88;;;18.70;99.90;;;;;;5044534;28;20044;-59
2022/08/05 02:05:09;;;;;;;14.52;9.75;;;18.70;99.90;;;;;;5043956;28;20028;-59
2022/08/05 02:07:38;;;;;;;13.00;9.23;;;18.60;99.90;;;;;;5043788;28;20079;-59
2022/08/05 02:10:04;;;;;;;16.27;9.82;;;18.60;99.90;;;;;;5044503;28;20031;-59
2022/08/05 02:12:32;;;;;;;15.35;9.85;;;18.60;99.90;;;;;;5043320;28;20035;-60
2022/08/05 02:15:12;;;;;;;13.52;9.80;;;18.80;99.90;;;;;;5045602;28;20041;-60
2022/08/05 02:18:01;;;;;;;12.82;9.55;;;18.80;99.90;;;;;;5045811;28;20059;-60
2022/08/05 02:20:32;;;;;;;15.25;10.73;;;18.70;99.90;;;;;;5047099;28;20397;-60
2022/08/05 02:23:01;;;;;;;17.33;10.57;;;18.70;99.90;;;;;;5043659;28;20029;-59
2022/08/05 02:25:34;;;;;;;17.00;10.70;;;18.70;99.90;;;;;;5038414;28;20134;-60
2022/08/05 02:28:02;;;;;;;13.45;10.63;;;18.80;99.90;;;;;;5043278;28;20388;-60
2022/08/05 02:30:37;;;;;;;14.90;11.13;;;18.70;99.90;;;;;;5043021;28;20119;-59
2022/08/05 02:33:04;;;;;;;15.90;11.55;;;17.90;99.90;;;;;;5042736;28;20061;-60
2022/08/05 02:35:34;;;;;;;15.20;11.25;;;18.70;99.90;;;;;;5043743;28;20445;-60
2022/08/05 02:38:01;;;;;;;16.52;11.52;;;18.70;99.90;;;;;;5050296;28;20396;-60
2022/08/05 02:40:27;;;;;;;14.45;10.98;;;18.60;99.90;;;;;;5043790;28;20529;-60
2022/08/05 02:42:54;;;;;;;15.63;12.50;;;18.50;99.90;;;;;;5043747;28;20020;-60
2022/08/05 02:45:22;;;;;;;16.25;12.15;;;18.50;99.90;;;;;;5040203;28;20049;-60
2022/08/05 02:47:50;;;;;;;18.00;12.73;;;18.60;99.90;;;;;;5044045;28;20044;-60
2022/08/05 02:50:16;;;;;;;17.13;11.93;;;19.40;99.90;;;;;;5044454;28;20032;-59
2022/08/05 02:52:44;;;;;;;16.83;13.20;;;18.40;99.90;;;;;;5043707;28;20041;-59
2022/08/05 02:55:11;;;;;;;17.10;12.45;;;18.80;99.90;;;;;;5043552;28;20021;-60
2022/08/05 02:57:38;;;;;;;17.33;12.80;;;18.60;99.90;;;;;;5043727;28;20048;-60
2022/08/05 03:00:05;;;;;;;15.70;12.73;;;18.80;99.90;;;;;;5025703;28;20100;-60
2022/08/05 03:02:36;;;;;;;16.67;12.13;;;19.00;99.90;;;;;;5042693;28;20622;-59
2022/08/05 03:05:03;;;;;;;15.70;12.50;;;19.20;99.90;;;;;;5043821;28;20567;-59
2022/08/05 03:07:31;;;;;;;16.40;11.63;;;19.50;99.90;;;;;;5041108;28;20109;-60
2022/08/05 03:09:56;;;;;;;16.55;12.82;;;20.00;99.90;;;;;;5043539;28;20033;-59
2022/08/05 03:12:32;;;;;;;18.58;12.48;;;19.20;99.90;;;;;;5043731;28;20040;-59
2022/08/05 03:14:58;;;;;;;19.20;12.77;;;18.60;99.90;;;;;;5039785;28;20084;-59
2022/08/05 03:17:24;;;;;;;16.05;11.77;;;18.30;99.90;;;;;;5045089;28;20029;-59
2022/08/05 03:19:50;;;;;;;20.48;13.88;;;18.20;99.90;;;;;;5049500;28;20033;-59
2022/08/05 03:22:15;;;;;;;19.48;13.68;;;18.20;99.90;;;;;;5042913;28;20029;-59
2022/08/05 03:24:45;;;;;;;17.95;12.90;;;18.30;99.90;;;;;;5041855;28;20028;-59
2022/08/05 03:27:12;;;;;;;21.00;13.60;;;18.50;99.90;;;;;;5047059;28;20067;-59
2022/08/05 03:29:39;;;;;;;19.02;13.98;;;18.30;99.90;;;;;;5041410;28;20036;-59
2022/08/05 03:32:06;;;;;;;17.58;13.68;;;;;;;;;;5047254;28;20040;-59
2022/08/05 03:34:32;;;;;;;21.27;13.93;;;;;;;;;;5046876;28;20115;-59
2022/08/05 03:36:57;;;;;;;18.33;14.13;;;18.40;99.90;;;;;;5047019;28;20032;-58
2022/08/05 03:39:23;;;;;;;20.38;13.82;;;18.50;99.90;;;;;;5046328;28;20033;-59
2022/08/05 03:41:48;;;;;;;21.02;15.30;;;18.80;99.90;;;;;;5046931;28;20241;-59
2022/08/05 03:44:14;;;;;;;21.77;14.82;;;18.70;99.90;;;;;;5046789;28;20396;-59
2022/08/05 03:46:39;;;;;;;17.45;14.15;;;18.90;99.90;;;;;;5046748;28;20028;-59
2022/08/05 03:49:05;;;;;;;19.42;14.13;;;18.70;99.90;;;;;;5046511;28;20030;-60
2022/08/05 03:52:08;;;;;;;21.52;13.88;;;19.40;99.90;;;;;;5045976;28;20378;-59
2022/08/05 03:54:49;;;;;;;19.90;15.98;;;18.40;99.90;;;;;;4984247;28;20670;-59
2022/08/05 03:57:19;;;;;;;20.30;15.40;;;18.40;99.90;;;;;;5037741;28;20036;-59
2022/08/05 03:59:52;;;;;;;23.65;15.15;;;18.30;99.90;;;;;;5046718;28;20493;-59
2022/08/05 04:02:21;;;;;;;20.00;15.52;;;18.30;99.90;;;;;;5045739;28;20369;-60
2022/08/05 04:04:46;;;;;;;25.02;18.50;;;18.40;99.90;;;;;;5046633;28;20485;-60
2022/08/05 04:07:12;;;;;;;26.90;17.63;;;18.40;99.90;;;;;;5046645;28;20033;-60
2022/08/05 04:09:39;;;;;;;23.90;18.58;;;18.50;99.90;;;;;;5046221;28;20032;-59
2022/08/05 04:12:06;;;;;;;20.83;18.48;;;18.60;99.90;;;;;;5046099;28;20017;-59
2022/08/05 04:14:32;;;;;;;26.20;18.52;;;18.60;99.90;;;;;;5048863;28;20025;-60
2022/08/05 04:16:59;;;;;;;21.80;19.20;;;19.30;99.90;;;;;;5049029;28;20035;-59
2022/08/05 04:19:26;;;;;;;24.70;19.60;;;19.70;99.90;;;;;;5045160;28;20094;-59
2022/08/05 04:21:51;;;;;;;24.52;18.70;;;18.80;99.90;;;;;;5044330;28;20021;-60
2022/08/05 04:24:17;;;;;;;26.98;19.63;;;18.70;99.90;;;;;;5045291;28;20021;-59
2022/08/05 04:26:42;;;;;;;24.33;19.58;;;18.70;99.90;;;;;;5042267;28;20036;-58
2022/08/05 04:29:08;;;;;;;25.75;20.05;;;18.30;99.90;;;;;;5046500;28;20029;-58
2022/08/05 04:31:34;;;;;;;25.33;19.25;;;18.30;99.90;;;;;;5045912;28;20033;-59
2022/08/05 04:33:59;;;;;;;27.42;19.63;;;18.50;99.90;;;;;;5045955;28;20096;-59
2022/08/05 04:36:25;;;;;;;26.77;20.85;;;18.70;99.90;;;;;;5040361;28;20505;-59
2022/08/05 04:38:53;;;;;;;26.90;22.02;;;18.70;99.90;;;;;;5044186;28;20059;-59
2022/08/05 04:41:18;;;;;;;27.33;20.60;;;18.80;99.90;;;;;;5046348;28;20036;-59
2022/08/05 04:43:44;;;;;;;28.75;21.70;;;18.70;99.90;;;;;;5045916;28;20492;-59
2022/08/05 04:46:10;;;;;;;27.48;22.13;;;18.70;99.90;;;;;;5044770;28;20481;-59
2022/08/05 04:48:35;;;;;;;29.27;21.80;;;19.60;99.90;;;;;;5045192;28;20021;-59
2022/08/05 04:51:01;;;;;;;28.95;22.10;;;18.70;99.90;;;;;;5044170;28;20044;-60
2022/08/05 04:53:26;;;;;;;29.02;22.33;;;18.60;99.90;;;;;;5045413;28;20025;-59
2022/08/05 04:55:52;;;;;;;29.13;21.63;;;18.60;99.90;;;;;;5045424;28;20396;-59
2022/08/05 04:58:17;;;;;;;29.58;21.77;;;18.50;99.90;;;;;;5045070;28;20053;-59
2022/08/05 05:00:43;;;;;;;29.95;22.58;;;19.40;99.90;;;;;;5045507;28;20028;-59
2022/08/05 05:03:09;;;;;;;31.23;24.48;;;18.50;99.90;;;;;;5045177;28;20113;-59
2022/08/05 05:05:35;;;;;;;33.47;24.20;;;18.40;99.90;;;;;;5045399;28;20857;-59
2022/08/05 05:08:03;;;;;;;30.67;23.33;;;18.40;99.90;;;;;;5044621;28;20027;-59
2022/08/05 05:10:30;;;;;;;30.30;22.65;;;18.40;99.90;;;;;;5045428;28;20725;-59
2022/08/05 05:12:56;;;;;;;29.55;21.85;;;18.60;99.90;;;;;;5045421;28;20503;-59
2022/08/05 05:15:22;;;;;;;27.63;21.50;;;18.40;99.90;;;;;;5047730;28;20037;-59
2022/08/05 05:17:48;;;;;;;31.42;21.75;;;18.20;99.90;;;;;;5054315;28;20545;-59
2022/08/05 05:20:13;;;;;;;26.17;21.80;;;18.40;99.90;;;;;;5039988;28;20029;-59
2022/08/05 05:22:39;;;;;;;25.45;21.58;;;18.20;99.90;;;;;;5045475;28;20021;-59
2022/08/05 05:25:06;;;;;;;28.48;21.63;;;18.20;99.90;;;;;;5032319;28;20074;-59
2022/08/05 05:27:33;;;;;;;30.58;21.88;;;17.90;99.90;;;;;;5045286;28;20580;-59
2022/08/05 05:29:59;;;;;;;26.88;21.63;;;18.00;99.90;;;;;;5043873;28;20512;-59
2022/08/05 05:32:25;;;;;;;26.48;21.52;;;18.00;99.90;;;;;;5044593;28;20044;-60
2022/08/05 05:34:50;;;;;;;25.75;18.17;;;18.10;99.90;;;;;;5044497;28;20064;-59
2022/08/05 05:37:16;;;;;;;25.73;17.67;;;18.00;99.90;;;;;;5043297;28;20025;-59
2022/08/05 05:39:42;;;;;;;24.38;18.52;;;17.80;99.90;;;;;;5038253;28;20033;-59
2022/08/05 05:42:07;;;;;;;19.90;16.65;;;17.80;99.90;;;;;;5042345;28;20485;-59
2022/08/05 05:44:33;;;;;;;21.90;14.30;;;17.80;99.90;;;;;;5042873;28;20039;-59
2022/08/05 05:46:59;;;;;;;16.80;12.85;;;17.50;99.90;;;;;;5044467;28;20044;-59
2022/08/05 05:49:25;;;;;;;23.52;13.40;;;17.40;99.90;;;;;;5044346;28;20057;-59
2022/08/05 05:51:51;;;;;;;20.63;12.98;;;17.60;99.90;;;;;;5043686;28;20021;-58
2022/08/05 05:54:17;;;;;;;16.10;12.13;;;17.50;99.90;;;;;;5044475;28;20064;-59
2022/08/05 05:56:42;;;;;;;20.27;11.52;;;17.40;99.90;;;;;;5044542;28;20033;-59
2022/08/05 05:59:08;;;;;;;19.20;11.95;;;17.40;99.90;;;;;;5043953;28;20028;-59
2022/08/05 06:01:38;;;;;;;19.38;11.93;;;17.30;99.90;;;;;;5041528;28;20051;-58
2022/08/05 06:04:08;;;;;;;15.85;11.00;;;17.30;99.90;;;;;;5043421;28;20058;-59
2022/08/05 06:06:34;;;;;;;22.02;12.05;;;17.50;99.90;;;;;;5044294;28;20519;-58
2022/08/05 06:09:01;;;;;;;14.95;10.07;;;17.40;99.90;;;;;;5044141;28;20029;-59
2022/08/05 06:11:26;;;;;;;16.05;10.07;;;17.50;99.90;;;;;;5044194;28;20079;-59
2022/08/05 06:13:52;;;;;;;16.27;9.52;;;17.40;99.90;;;;;;5043121;28;20025;-59
2022/08/05 06:16:17;;;;;;;19.33;9.52;;;17.50;99.90;;;;;;5043707;28;20044;-59
2022/08/05 06:18:43;;;;;;;19.33;9.77;;;17.60;99.90;;;;;;5048325;28;20037;-59
2022/08/05 06:21:09;;;;;;;13.32;8.95;;;17.40;99.90;;;;;;5040529;28;20064;-59
2022/08/05 06:23:34;;;;;;;16.50;9.75;;;17.30;99.90;;;;;;5043672;28;20111;-58
2022/08/05 06:26:00;;;;;;;16.80;9.07;;;17.30;99.90;;;;;;5043250;28;20021;-59
2022/08/05 06:28:25;;;;;;;17.15;8.93;;;17.30;99.90;;;;;;5043970;28;20025;-60
2022/08/05 06:30:51;;;;;;;17.13;9.05;;;17.40;99.90;;;;;;5041648;28;20017;-59
2022/08/05 06:33:16;;;;;;;14.35;8.68;;;17.40;99.90;;;;;;5043641;28;20025;-59
2022/08/05 06:35:42;;;;;;;13.05;8.70;;;17.60;99.90;;;;;;5042517;28;20029;-59
2022/08/05 06:38:07;;;;;;;11.73;8.43;;;17.30;99.90;;;;;;5053352;28;20036;-59
2022/08/05 06:40:33;;;;;;;15.82;8.88;;;17.30;99.90;;;;;;5044787;28;20032;-58
2022/08/05 06:42:58;;;;;;;12.55;8.88;;;17.60;99.90;;;;;;5043742;28;20021;-58
2022/08/05 06:45:24;;;;;;;14.35;8.65;;;17.50;99.90;;;;;;5033930;28;20028;-59
2022/08/05 06:47:49;;;;;;;15.57;9.43;;;17.50;99.90;;;;;;5042580;28;20559;-58
2022/08/05 06:50:15;;;;;;;15.57;9.43;;;17.30;99.90;;;;;;5043535;28;20041;-58
2022/08/05 06:52:41;;;;;;;13.77;9.30;;;17.30;99.90;;;;;;5036808;28;20612;-58
2022/08/05 06:55:07;;;;;;;15.20;11.45;;;17.30;99.90;;;;;;5043744;28;20248;-59
2022/08/05 06:57:32;;;;;;;12.20;9.68;;;17.70;99.90;;;;;;5042340;28;20062;-59
2022/08/05 06:59:58;;;;;;;12.52;9.05;;;17.80;99.90;;;;;;5042665;28;20490;-59
2022/08/05 07:02:24;;;;;;;14.15;8.23;;;17.40;99.90;;;;;;5043399;28;20057;-58
2022/08/05 07:04:49;;;;;;;13.43;8.55;;;17.30;99.90;;;;;;5043486;28;20417;-59
2022/08/05 07:07:15;;;;;;;12.13;7.90;;;17.40;99.90;;;;;;5043116;28;20037;-58
2022/08/05 07:09:40;;;;;;;12.20;7.35;;;17.30;99.90;;;;;;5042620;28;20224;-58
2022/08/05 07:12:06;;;;;;;10.73;6.28;;;17.30;99.90;;;;;;5043729;28;20090;-59
2022/08/05 07:17:16;;;;;;;9.30;5.53;;;17.20;99.90;;;;;;5047037;28;20054;-59
2022/08/05 07:19:42;;;;;;;9.88;4.93;;;17.30;99.90;;;;;;5042333;28;20481;-59
2022/08/05 07:22:07;;;;;;;9.80;4.95;;;17.30;99.90;;;;;;5042964;28;20034;-58
2022/08/05 07:24:33;;;;;;;10.27;4.80;;;17.30;99.90;;;;;;5042941;28;20033;-58
2022/08/05 07:26:58;;;;;;;9.73;4.97;;;17.00;99.90;;;;;;5042982;28;20018;-59
2022/08/05 07:29:24;;;;;;;11.00;5.38;;;17.10;99.90;;;;;;5043408;28;20037;-58
2022/08/05 07:31:49;;;;;;;12.80;5.30;;;17.20;99.90;;;;;;5042303;28;20032;-59
2022/08/05 07:34:15;;;;;;;8.38;4.82;;;17.20;99.90;;;;;;5042925;28;20060;-59
2022/08/05 07:36:41;;;;;;;8.05;5.25;;;17.10;99.90;;;;;;5046645;28;20033;-59
2022/08/05 07:39:08;;;;;;;11.55;6.00;;;17.10;99.90;;;;;;5042852;28;20087;-59
2022/08/05 07:41:34;;;;;;;11.63;6.00;;;17.00;99.90;;;;;;5042206;28;20037;-59
2022/08/05 07:44:00;;;;;;;10.98;6.00;;;17.00;99.90;;;;;;5042999;28;20017;-58
2022/08/05 07:46:29;;;;;;;8.85;5.55;;;17.00;99.90;;;;;;5043065;28;20036;-58
2022/08/05 07:48:56;;;;;;;6.90;4.82;;;17.00;99.90;;;;;;5042416;28;20382;-58
2022/08/05 07:51:21;;;;;;;10.77;5.93;;;17.00;99.90;;;;;;5043252;28;20027;-59
2022/08/05 07:53:47;;;;;;;12.93;5.20;;;17.00;99.90;;;;;;5041882;28;20468;-58
2022/08/05 07:56:12;;;;;;;9.82;4.72;;;17.10;99.90;;;;;;5042931;28;20030;-59
2022/08/05 07:58:38;;;;;;;10.90;4.55;;;17.40;99.90;;;;;;5043094;28;20017;-58
2022/08/05 08:01:04;;;;;;;9.45;4.63;;;17.40;99.90;;;;;;5045106;28;20057;-58
2022/08/05 08:03:30;;;;;;;9.23;4.38;;;17.50;99.90;;;;;;5042159;28;20288;-59
2022/08/05 08:05:55;;;;;;;8.43;4.45;;;17.30;99.90;;;;;;5042187;28;20489;-58
2022/08/05 08:08:21;;;;;;;12.63;5.03;;;17.30;99.90;;;;;;5042797;28;20033;-59
2022/08/05 08:10:47;;;;;;;7.75;4.43;;;17.20;99.90;;;;;;5044278;28;20064;-59
2022/08/05 08:13:12;;;;;;;9.98;4.57;;;17.30;99.90;;;;;;5044445;28;20017;-58
2022/08/05 08:15:38;;;;;;;10.27;4.65;;;17.40;99.90;;;;;;5047415;28;20040;-59
2022/08/05 08:18:04;;;;;;;11.77;4.70;;;17.30;99.90;;;;;;5051275;28;20059;-59
2022/08/05 08:20:29;;;;;;;8.77;4.03;;;17.30;99.90;;;;;;5045731;28;20024;-59
2022/08/05 08:22:58;;;;;;;7.95;4.50;;;17.00;99.90;;;;;;5050039;28;20028;-59
2022/08/05 08:25:24;;;;;;;10.40;4.28;;;17.30;99.90;;;;;;5045267;28;20477;-59
2022/08/05 08:27:50;;;;;;;9.38;4.40;;;17.40;99.90;;;;;;5051266;28;20377;-58
2022/08/05 08:30:16;;;;;;;7.85;4.30;;;17.40;99.90;;;;;;5045933;28;20029;-58
2022/08/05 08:32:42;;;;;;;11.05;4.28;;;17.40;99.90;;;;;;5045845;28;20456;-58
2022/08/05 08:35:08;;;;;;;8.07;4.25;;;17.30;99.90;;;;;;5039287;28;20029;-59
2022/08/05 08:37:33;;;;;;;12.65;4.50;;;17.60;99.90;;;;;;5049059;28;20037;-58
2022/08/05 08:39:59;;;;;;;9.15;4.10;;;17.50;99.90;;;;;;5048603;28;20077;-59
2022/08/05 08:42:25;;;;;;;7.70;4.13;;;17.40;99.90;;;;;;5045797;28;20632;-59
2022/08/05 08:44:55;;;;;;;7.28;3.88;;;17.30;99.90;;;;;;5049537;28;20048;-59
2022/08/05 08:47:25;;;;;;;8.02;3.70;;;17.50;99.90;;;;;;5044033;28;20083;-59
2022/08/05 08:49:56;;;;;;;6.97;3.83;;;17.40;99.90;;;;;;5052561;28;20087;-59
2022/08/05 08:52:29;;;;;;;10.30;4.45;;;17.40;99.90;;;;;;5039221;28;20040;-59
2022/08/05 08:54:55;;;;;;;;;;;17.60;99.90;;;;;;5045584;28;20021;-59
2022/08/05 08:57:22;;;;;;;9.15;4.55;;;17.60;99.90;;;;;;5045655;28;20073;-59
2022/08/05 08:59:49;;;;;;;7.85;4.50;;;17.60;99.90;;;;;;5047510;28;20056;-58
2022/08/05 09:02:17;;;;;;;8.77;4.07;;;17.80;99.90;;;;;;5048624;28;20400;-59
2022/08/05 09:04:44;;;;;;;9.27;4.30;;;18.10;99.90;;;;;;5039059;28;20029;-59
2022/08/05 09:07:10;;;;;;;8.50;4.25;;;18.20;99.90;;;;;;5039486;28;20077;-58
2022/08/05 09:09:37;;;;;;;11.40;4.32;;;18.00;99.90;;;;;;5044539;28;20053;-58
2022/08/05 09:12:04;;;;;;;10.43;3.92;;;18.10;99.90;;;;;;5045121;28;20029;-59
2022/08/05 09:14:33;;;;;;;8.25;4.43;;;18.00;99.90;;;;;;5047790;28;20162;-58
2022/08/05 09:16:59;;;;;;;8.45;5.07;;;18.10;99.90;;;;;;5049025;28;20057;-59
2022/08/05 09:19:25;;;;;;;12.85;5.47;;;18.10;99.90;;;;;;5047814;28;20036;-59
2022/08/05 09:21:51;;;;;;;8.27;4.55;;;18.00;99.90;;;;;;5044110;28;20021;-59
2022/08/05 09:24:16;;;;;;;10.07;4.38;;;18.10;99.90;;;;;;5045875;28;20031;-59
2022/08/05 09:26:49;;;;;;;8.57;3.97;;;18.00;99.90;;;;;;5044855;28;20112;-59
2022/08/05 09:29:15;;;;;;;7.97;4.00;;;18.10;99.90;;;;;;5045026;28;20476;-59
2022/08/05 09:31:44;;;;;;;5.93;3.50;;;18.20;99.90;;;;;;5044269;28;20090;-59
2022/08/05 09:34:10;;;;;;;7.57;3.67;;;18.40;99.90;;;;;;5044432;28;20425;-58
2022/08/05 09:36:51;;;;;;;11.30;3.72;;;;;;;;;;5044616;28;20036;-59
2022/08/05 09:39:18;;;;;;;5.53;2.88;;;18.50;99.90;;;;;;5044672;28;20033;-59
2022/08/05 09:41:55;;;;;;;5.63;2.95;;;18.50;99.90;;;;;;5043439;28;20517;-60
2022/08/05 09:44:50;;;;;;;7.05;3.13;;;18.70;99.90;;;;;;5039376;28;20512;-58
2022/08/05 09:47:21;;;;;;;9.40;3.70;;;18.60;99.90;;;;;;5044316;28;20031;-59
2022/08/05 09:49:48;;;;;;;7.47;3.28;;;18.90;99.90;;;;;;5044749;28;20492;-59
2022/08/05 09:52:23;;;;;;;8.98;3.33;;;19.00;99.90;;;;;;5044557;28;20025;-59
2022/08/05 09:55:06;;;;;;;6.25;3.47;;;19.20;99.90;;;;;;5043501;28;20033;-59
2022/08/05 09:57:45;;;;;;;7.78;4.30;;;19.20;99.90;;;;;;5044065;28;20457;-60
2022/08/05 10:00:23;;;;;;;9.15;4.43;;;19.40;99.90;;;;;;5044099;28;20017;-59
2022/08/05 10:02:53;;;;;;;9.55;4.03;;;19.50;99.90;;;;;;5043077;28;20031;-59
2022/08/05 10:05:22;;;;;;;7.03;3.60;;;19.70;99.90;;;;;;5043668;28;20032;-59
2022/08/05 10:08:03;;;;;;;6.35;3.60;;;19.60;99.90;;;;;;5044112;28;20032;-59
2022/08/05 10:10:32;;;;;;;8.07;3.80;;;19.40;99.90;;;;;;5044015;28;20021;-59
2022/08/05 10:13:01;;;;;;;8.27;3.97;;;19.40;99.90;;;;;;5044070;28;20029;-59
2022/08/05 10:15:30;;;;;;;8.98;3.65;;;19.50;99.90;;;;;;5043403;28;20671;-59
2022/08/05 10:18:13;;;;;;;6.82;3.45;;;19.70;99.90;;;;;;5045229;28;20016;-59
2022/08/05 10:20:43;;;;;;;6.32;3.50;;;20.00;99.90;;;;;;5039308;28;20025;-59
2022/08/05 10:23:15;;;;;;;6.80;4.07;;;20.00;99.90;;;;;;5043936;28;20025;-59
2022/08/05 10:25:41;;;;;;;7.80;3.42;;;20.00;99.90;;;;;;5043482;28;20542;-59
2022/08/05 10:28:08;;;;;;;7.95;4.70;;;20.40;99.90;;;;;;5040205;28;20377;-60
2022/08/05 10:30:35;;;;;;;10.00;4.93;;;20.40;99.90;;;;;;5044203;28;20091;-60
2022/08/05 10:33:01;;;;;;;8.75;5.32;;;20.50;99.90;;;;;;5043443;28;20083;-59
2022/08/05 10:35:27;;;;;;;7.03;5.30;;;20.50;99.90;;;;;;5041825;28;20052;-60
2022/08/05 10:37:53;;;;;;;10.98;5.30;;;20.40;99.90;;;;;;5044192;28;20021;-59
2022/08/05 10:40:46;;;;;;;8.40;4.82;;;20.40;99.90;;;;;;5053281;28;20483;-59
2022/08/05 10:43:24;;;;;;;9.65;5.22;;;20.50;99.90;;;;;;5046216;28;20123;-59
2022/08/05 10:45:58;;;;;;;8.80;5.10;;;20.40;99.90;;;;;;5042363;28;20104;-59
2022/08/05 10:48:42;;;;;;;;;;;20.70;99.90;;;;;;5036115;28;20111;-59
2022/08/05 10:51:19;;;;;;;12.43;5.30;;;20.80;99.90;;;;;;5043809;28;20325;-60
2022/08/05 10:53:57;;;;;;;9.68;4.70;;;21.00;99.90;;;;;;5043673;28;20112;-60
2022/08/05 10:56:25;;;;;;;9.73;4.50;;;20.70;99.90;;;;;;5043627;28;20393;-59
2022/08/05 10:58:53;;;;;;;6.32;4.38;;;20.80;99.90;;;;;;5043447;28;20025;-60
2022/08/05 11:01:36;;;;;;;8.15;4.57;;;20.90;99.90;;;;;;5042659;28;20091;-60
2022/08/05 11:04:14;;;;;;;7.97;4.57;;;21.00;99.90;;;;;;5037852;28;20540;-60
2022/08/05 11:07:00;;;;;;;9.75;5.10;;;20.90;99.90;;;;;;5043523;28;20577;-60
2022/08/05 11:09:45;;;;;;;7.65;4.35;;;21.00;99.90;;;;;;5043684;28;20139;-60
2022/08/05 11:12:23;;;;;;;9.60;4.65;;;;;;;;;;5040012;28;20063;-60
2022/08/05 11:15:21;;;;;;;10.90;5.18;;;20.60;99.90;;;;;;5041245;28;20107;-59
2022/08/05 11:17:49;;;;;;;8.27;4.80;;;20.60;99.90;;;;;;5042296;28;20033;-60
2022/08/05 11:20:36;;;;;;;9.02;4.85;;;20.60;99.90;;;;;;5044026;28;20036;-59
2022/08/05 11:23:30;;;;;;;7.63;4.32;;;20.70;99.90;;;;;;5041822;28;20032;-60
2022/08/05 11:26:03;;;;;;;6.45;4.10;;;20.80;99.90;;;;;;5042209;28;20025;-60
2022/08/05 11:28:31;;;;;;;9.02;4.25;;;21.30;99.90;;;;;;5043172;28;20068;-60
2022/08/05 11:30:57;;;;;;;6.60;3.83;;;20.80;99.90;;;;;;5043198;28;20408;-59
2022/08/05 11:33:29;;;;;;;6.40;3.70;;;20.80;99.90;;;;;;5042545;28;20029;-60
2022/08/05 11:36:06;;;;;;;7.38;4.13;;;21.80;99.90;;;;;;5026259;28;20115;-60
2022/08/05 11:38:37;;;;;;;6.78;3.78;;;21.20;99.90;;;;;;5037267;28;20506;-60
2022/08/05 11:41:08;;;;;;;5.97;3.35;;;21.00;99.90;;;;;;5043139;28;20072;-60
2022/08/05 11:43:34;;;;;;;8.70;3.50;;;21.00;99.90;;;;;;5040390;28;20401;-59
2022/08/05 11:46:00;;;;;;;11.98;3.83;;;21.00;99.90;;;;;;5043481;28;20025;-60
2022/08/05 11:48:27;;;;;;;9.75;4.10;;;21.20;99.90;;;;;;5047010;28;20127;-60
2022/08/05 11:50:53;;;;;;;9.93;3.75;;;21.40;99.90;;;;;;5045348;28;20112;-60
2022/08/05 11:53:20;;;;;;;8.48;3.47;;;21.50;99.90;;;;;;5051161;28;20040;-59
2022/08/05 11:56:01;;;;;;;10.13;3.50;;;21.50;99.90;;;;;;5050098;28;20029;-60
2022/08/05 11:58:34;;;;;;;9.20;3.22;;;21.60;99.90;;;;;;5047027;28;20408;-60
2022/08/05 12:01:02;;;;;;;6.85;3.40;;;21.60;99.90;;;;;;5046885;28;20043;-60
2022/08/05 12:03:28;;;;;;;7.68;3.60;;;21.70;99.90;;;;;;5046879;28;20508;-59
2022/08/05 12:06:00;;;;;;;5.88;3.30;;;21.40;99.90;;;;;;5043328;28;20020;-60
2022/08/05 12:08:26;;;;;;;6.05;3.15;;;21.50;99.90;;;;;;5046998;28;20651;-60
2022/08/05 12:10:56;;;;;;;6.13;3.13;;;22.00;99.90;;;;;;5046912;28;20047;-59
2022/08/05 12:13:21;;;;;;;6.68;3.53;;;21.70;99.90;;;;;;5048681;28;20033;-60
2022/08/05 12:15:47;;;;;;;7.82;3.47;;;21.60;99.90;;;;;;5044261;28;20037;-61
2022/08/05 12:18:17;;;;;;;6.78;3.75;;;21.50;99.90;;;;;;5050183;28;20074;-60
2022/08/05 12:20:43;;;;;;;12.43;3.28;;;21.60;99.90;;;;;;5046299;28;20028;-60
2022/08/05 12:23:10;;;;;;;6.15;2.40;;;21.80;99.90;;;;;;5046479;28;20033;-60
2022/08/05 12:26:08;;;;;;;7.55;2.72;;;21.80;99.90;;;;;;5038588;28;20455;-60
2022/08/05 12:28:37;;;;;;;9.05;3.03;;;22.10;99.90;;;;;;5012480;28;20393;-60
2022/08/05 12:31:03;;;;;;;5.60;3.20;;;22.10;99.90;;;;;;5046434;28;20114;-60
2022/08/05 12:33:30;;;;;;;5.88;2.65;;;22.20;99.90;;;;;;5046458;28;20036;-60
2022/08/05 12:35:56;;;;;;;7.13;2.60;;;22.10;99.90;;;;;;5046041;28;20032;-60
2022/08/05 12:38:22;;;;;;;5.78;2.28;;;21.50;99.90;;;;;;5045345;28;20027;-59
2022/08/05 12:40:48;;;;;;;4.50;2.20;;;21.50;99.90;;;;;;5046235;28;20025;-59
2022/08/05 12:43:15;;;;;;;8.10;2.47;;;21.20;99.90;;;;;;5045865;28;20037;-60
2022/08/05 12:45:58;;;;;;;8.20;1.83;;;21.20;99.90;;;;;;5045599;28;20028;-60
2022/08/05 12:48:24;;;;;;;;;;;21.00;99.90;;;;;;5039706;28;20033;-60
2022/08/05 12:51:12;;;;;;;3.78;1.60;;;21.00;99.90;;;;;;5043710;28;19913;-60